Terminal Aerodrome Forecast
Issued by NWS

Home | Current Version | Previous Version | Text Only | Print | Product List | Glossary On
Versions: 1 2 3 4 5 6 7 8 9 10 11 12 13 14 15 16
152
FTUS42 KTAE 131725
TAFVLD
TAF
KVLD 131725Z 1318/1418 36007G15KT P6SM SKC
     FM140000 02003KT P6SM SKC
     FM141500 07009KT P6SM SKC=

USA.gov is the U.S. government's official web portal to all federal, state and local government web resources and services.